L'a Kai — 6YRU2 — position and weather

sailwx.info

Track history (hours):
 
Tides and Currents Weather Stations Pressure Air Temp Water Temp Dewpoint Dewpoint Depression Visibility Wind Speed Wind Dir Waves Ship Positions

L'a Kai

Last reported at 2018-Jan-12 13:46 UTC. Time now 2018-Feb-18 08:41 UTC.
Position N 25°41' W 079°19'.
Warning: this ship's position is 36 days out of date.

Length 11 m.

MMSI: 339344000.

Date/timePositionNaut miles runAvg speedWind from/ knotsBaromVisibWave heightAir tempDewpointWater temp
2018-Jan-12 13:46N 25°41' W 079°19'3 9.2
2018-Jan-12 13:30N 25°44' W 079°19'4 7.2
2018-Jan-12 12:58N 25°48' W 079°18'510.5
2018-Jan-12 12:30N 25°43' W 079°19'3 5.6
2018-Jan-12 11:58N 25°45' W 079°17'0 0.0
2018-Jan-12 11:28N 25°45' W 079°17'0 0.0
2018-Jan-12 10:58N 25°45' W 079°17'0 0.0
2018-Jan-12 10:28N 25°45' W 079°17'0 0.0
2018-Jan-12 09:58N 25°45' W 079°17'0 0.0
2018-Jan-12 09:28N 25°45' W 079°17'0 0.0
2018-Jan-12 08:58N 25°45' W 079°17'0 0.0
2018-Jan-12 08:28N 25°45' W 079°17'0 0.0
2018-Jan-12 07:58N 25°45' W 079°17'0 0.0
2018-Jan-12 07:28N 25°45' W 079°17'0 0.0
2018-Jan-12 06:58N 25°45' W 079°17'0 0.0
2018-Jan-12 06:28N 25°45' W 079°17'0 0.0
2018-Jan-12 05:55N 25°45' W 079°17'0 0.0
2018-Jan-12 05:28N 25°45' W 079°17'0 0.0
2018-Jan-12 04:58N 25°45' W 079°17'0 0.0
2018-Jan-12 04:28N 25°45' W 079°17'0 0.0
2018-Jan-12 03:58N 25°45' W 079°17'0 0.0
2018-Jan-12 03:28N 25°45' W 079°17'0 0.0
2018-Jan-12 02:58N 25°45' W 079°17'0 0.0
2018-Jan-12 02:28N 25°45' W 079°17'0 0.0
2018-Jan-12 01:58N 25°45' W 079°17'0 0.0
2018-Jan-12 01:28N 25°45' W 079°17'0 0.0
2018-Jan-12 00:58N 25°45' W 079°17'0 0.0
2018-Jan-12 00:28N 25°45' W 079°17'0 0.0
2018-Jan-11 23:58N 25°45' W 079°17'0 0.0
2018-Jan-11 23:28N 25°45' W 079°17'0 0.0
2018-Jan-11 22:58N 25°45' W 079°17'0 0.0
2018-Jan-11 22:25N 25°45' W 079°17'0 0.0
2018-Jan-11 21:58N 25°45' W 079°17'0 0.0
2018-Jan-11 21:28N 25°45' W 079°17'0 0.0
2018-Jan-11 20:58N 25°45' W 079°17'0 0.0
2018-Jan-11 20:28N 25°45' W 079°17'0 0.0
2018-Jan-11 19:58N 25°45' W 079°17'0 0.0
2018-Jan-11 19:28N 25°45' W 079°17'0 0.0
2018-Jan-11 18:58N 25°45' W 079°17'0 0.0
2018-Jan-11 18:28N 25°45' W 079°17'0 0.0
2018-Jan-11 17:58N 25°45' W 079°17'0 0.0
2018-Jan-11 17:28N 25°45' W 079°17'0 0.0
2018-Jan-11 16:58N 25°45' W 079°17'0 0.0
2018-Jan-11 16:28N 25°45' W 079°17'0 0.0
2018-Jan-11 15:58N 25°45' W 079°17'1 2.7
2018-Jan-11 15:30N 25°44' W 079°17'2 3.2
2018-Jan-11 15:01N 25°45' W 079°19'0 0.5
2018-Jan-11 14:30N 25°44' W 079°19'0 0.9
2018-Jan-11 14:00N 25°45' W 079°19'0 0.7
2018-Jan-11 13:30N 25°45' W 079°19'3 5.4
2018-Jan-11 13:00N 25°48' W 079°18'3 4.8
2018-Jan-11 12:28N 25°45' W 079°19'2 3.8
2018-Jan-11 12:00N 25°45' W 079°17'0 0.6
2018-Jan-11 11:28N 25°45' W 079°17'0 0.0
2018-Jan-11 10:58N 25°45' W 079°17'0 0.0
2018-Jan-11 10:28N 25°45' W 079°17'0 0.0
2018-Jan-11 09:58N 25°45' W 079°17'0 0.0
2018-Jan-11 09:28N 25°45' W 079°17'0 0.0
2018-Jan-11 08:58N 25°45' W 079°17'0 0.0
2018-Jan-11 08:28N 25°45' W 079°17'0 0.0
2018-Jan-11 07:58N 25°45' W 079°17'0 0.0
2018-Jan-11 07:28N 25°45' W 079°17'0 0.0
2018-Jan-11 06:58N 25°45' W 079°17'0 0.0
2018-Jan-11 06:28N 25°45' W 079°17'0 0.0
2018-Jan-11 05:58N 25°45' W 079°17'0 0.0
2018-Jan-11 05:28N 25°45' W 079°17'0 0.0
2018-Jan-11 04:58N 25°45' W 079°17'0 0.0
2018-Jan-11 04:28N 25°45' W 079°17'0 0.0
2018-Jan-11 03:58N 25°45' W 079°17'0 0.0
2018-Jan-11 03:28N 25°45' W 079°17'0 0.0
2018-Jan-11 02:58N 25°45' W 079°17'0 0.0
2018-Jan-11 02:28N 25°45' W 079°17'0 0.0
2018-Jan-11 01:58N 25°45' W 079°17'0 0.0
2018-Jan-11 01:28N 25°45' W 079°17'0 0.0
2018-Jan-11 00:58N 25°45' W 079°17'0 0.0
2018-Jan-11 00:28N 25°45' W 079°17'0 0.0
2018-Jan-10 23:58N 25°45' W 079°17'0 0.0
2018-Jan-10 23:28N 25°45' W 079°17'0 0.0
2018-Jan-10 22:58N 25°45' W 079°17'0 0.0
2018-Jan-10 22:28N 25°45' W 079°17'0 0.0
2018-Jan-10 21:58N 25°45' W 079°17'0 0.0
2018-Jan-10 21:28N 25°45' W 079°17'0 0.0
2018-Jan-10 20:58N 25°45' W 079°17'0 0.0
2018-Jan-10 20:29N 25°45' W 079°17'0 0.0
2018-Jan-10 19:58N 25°45' W 079°17'0 0.0
2018-Jan-10 19:28N 25°45' W 079°17'0 0.0
2018-Jan-10 18:58N 25°45' W 079°17'0 0.0
2018-Jan-10 18:28N 25°45' W 079°17'0 0.0
2018-Jan-10 17:58N 25°45' W 079°17'0 0.0
2018-Jan-10 17:28N 25°45' W 079°17'0 0.0
2018-Jan-10 16:58N 25°45' W 079°17'0 0.0
2018-Jan-10 16:28N 25°45' W 079°17'0 0.0
2018-Jan-10 15:58N 25°45' W 079°17'0 0.0
2018-Jan-10 15:28N 25°45' W 079°17'0 0.0
2018-Jan-10 14:58N 25°45' W 079°17'0 0.0
2018-Jan-10 14:28N 25°45' W 079°17'38 1.7
2018-Jan-09 15:49N 25°46' W 079°59'3 9.3
2018-Jan-09 15:30N 25°46' W 080°02'5 9.6
2018-Jan-09 15:00N 25°46' W 080°07'1 2.3
2018-Jan-09 14:30N 25°46' W 080°08'2 4.2
2018-Jan-09 13:58N 25°47' W 080°11'0 0.0
2018-Jan-09 13:22N 25°47' W 080°11'0 0.0
2018-Jan-09 12:55N 25°47' W 080°11'0 0.0
2018-Jan-09 12:28N 25°47' W 080°11'0 0.0
2018-Jan-09 11:55N 25°47' W 080°11'0 0.0
2018-Jan-09 11:28N 25°47' W 080°11'0 0.0
2018-Jan-09 10:55N 25°47' W 080°11'0 0.0
2018-Jan-09 10:28N 25°47' W 080°11'0 0.0
2018-Jan-09 09:58N 25°47' W 080°11'0 0.0
2018-Jan-09 09:25N 25°47' W 080°11'0 0.0
2018-Jan-09 08:58N 25°47' W 080°11'0 0.0
2018-Jan-09 08:28N 25°47' W 080°11'0 0.0
2018-Jan-09 07:58N 25°47' W 080°11'0 0.0
2018-Jan-09 07:28N 25°47' W 080°11'0 0.0
2018-Jan-09 06:58N 25°47' W 080°11'0 0.0
2018-Jan-09 06:28N 25°47' W 080°11'0 0.0
2018-Jan-09 05:58N 25°47' W 080°11'0 0.0
2018-Jan-09 05:28N 25°47' W 080°11'0 0.0
2018-Jan-09 04:55N 25°47' W 080°11'0 0.0
2018-Jan-09 04:25N 25°47' W 080°11'0 0.0
2018-Jan-09 03:52N 25°47' W 080°11'0 0.0
2018-Jan-09 03:28N 25°47' W 080°11'0 0.0
2018-Jan-09 02:58N 25°47' W 080°11'0 0.0
2018-Jan-09 02:28N 25°47' W 080°11'0 0.0
2018-Jan-09 01:58N 25°47' W 080°11'0 0.0
2018-Jan-09 01:28N 25°47' W 080°11'0 0.0
2018-Jan-09 00:58N 25°47' W 080°11'0 0.0
2018-Jan-09 00:28N 25°47' W 080°11'0 0.0
2018-Jan-08 23:58N 25°47' W 080°11'0 0.0
2018-Jan-08 23:28N 25°47' W 080°11'0 0.0
2018-Jan-08 22:55N 25°47' W 080°11'0 0.0
2018-Jan-08 22:28N 25°47' W 080°11'0 0.0
2018-Jan-08 21:58N 25°47' W 080°11'0 0.0
2018-Jan-08 21:28N 25°47' W 080°11'0 0.0
2018-Jan-08 20:58N 25°47' W 080°11'0 0.0
2018-Jan-08 20:25N 25°47' W 080°11'0 0.0
2018-Jan-08 19:58N 25°47' W 080°11'0 0.0
2018-Jan-08 19:28N 25°47' W 080°11'0 0.0
2018-Jan-08 18:58N 25°47' W 080°11'0 0.0
2018-Jan-08 18:28N 25°47' W 080°11'0 0.0
2018-Jan-08 17:58N 25°47' W 080°11'0 0.0
2018-Jan-08 17:28N 25°47' W 080°11'0 0.0
2018-Jan-08 16:55N 25°47' W 080°11'0 0.0
2018-Jan-08 16:28N 25°47' W 080°11'0 0.0
2018-Jan-08 15:58N 25°47' W 080°11'0 0.0
2018-Jan-08 15:28N 25°47' W 080°11'0 0.0
2018-Jan-08 14:58N 25°47' W 080°11'0 0.0
2018-Jan-08 14:28N 25°47' W 080°11'0 0.0
2018-Jan-08 13:58N 25°47' W 080°11'0 0.0
2018-Jan-08 13:28N 25°47' W 080°11'0 0.0
2018-Jan-08 12:58N 25°47' W 080°11'0 0.0
2018-Jan-08 12:28N 25°47' W 080°11'0 0.0
2018-Jan-08 11:58N 25°47' W 080°11'0 0.0
2018-Jan-08 11:28N 25°47' W 080°11'0 0.0
2018-Jan-08 10:58N 25°47' W 080°11'0 0.0
2018-Jan-08 10:28N 25°47' W 080°11'0 0.0
2018-Jan-08 09:58N 25°47' W 080°11'0 0.0
2018-Jan-08 09:28N 25°47' W 080°11'0 0.0
2018-Jan-08 08:49N 25°47' W 080°11'0 0.0
2018-Jan-08 08:28N 25°47' W 080°11'0 0.0
2018-Jan-08 07:58N 25°47' W 080°11'0 0.0
2018-Jan-08 07:28N 25°47' W 080°11'0 0.0
2018-Jan-08 06:46N 25°47' W 080°11'0 0.0
2018-Jan-08 06:28N 25°47' W 080°11'0 0.0
2018-Jan-08 05:52N 25°47' W 080°11'0 0.0
2018-Jan-08 05:28N 25°47' W 080°11'0 0.0
2018-Jan-08 04:58N 25°47' W 080°11'0 0.0
2018-Jan-08 04:25N 25°47' W 080°11'0 0.0
2018-Jan-08 03:55N 25°47' W 080°11'0 0.0
2018-Jan-08 03:07N 25°47' W 080°11'0 0.0
2018-Jan-08 02:58N 25°47' W 080°11'0 0.0
2018-Jan-08 02:28N 25°47' W 080°11'0 0.0
2018-Jan-08 01:58N 25°47' W 080°11'0 0.0
2018-Jan-08 01:28N 25°47' W 080°11'0 0.0
2018-Jan-08 00:55N 25°47' W 080°11'0 0.0
2018-Jan-08 00:28N 25°47' W 080°11'0 0.0
2018-Jan-07 23:58N 25°47' W 080°11'0 0.0
2018-Jan-07 23:28N 25°47' W 080°11'0 0.0
2018-Jan-07 22:58N 25°47' W 080°11'0 0.0
2018-Jan-07 22:28N 25°47' W 080°11'0 0.0
2018-Jan-07 21:58N 25°47' W 080°11'0 0.0
2018-Jan-07 21:16N 25°47' W 080°11'0 0.0
2018-Jan-07 20:58N 25°47' W 080°11'0 0.0
2018-Jan-07 20:28N 25°47' W 080°11'0 0.0
2018-Jan-07 19:58N 25°47' W 080°11'0 0.0
2018-Jan-07 19:19N 25°47' W 080°11'0 0.0
2018-Jan-07 18:58N 25°47' W 080°11'0 0.0
2018-Jan-07 18:25N 25°47' W 080°11'0 0.0
2018-Jan-07 17:49N 25°47' W 080°11'0 0.0
2018-Jan-07 17:28N 25°47' W 080°11'0 0.0
2018-Jan-07 16:58N 25°47' W 080°11'0 0.0
2018-Jan-07 16:25N 25°47' W 080°11'0 0.0
2018-Jan-07 15:58N 25°47' W 080°11'0 0.0
2018-Jan-07 15:28N 25°47' W 080°11'0 0.0
2018-Jan-07 14:58N 25°47' W 080°11'0 0.0
2018-Jan-07 14:25N 25°47' W 080°11'0 0.0
2018-Jan-07 13:58N 25°47' W 080°11'0 0.0
2018-Jan-07 13:28N 25°47' W 080°11'0 0.0
2018-Jan-07 12:58N 25°47' W 080°11'0 0.0
2018-Jan-07 12:22N 25°47' W 080°11'0 0.0
2018-Jan-07 11:55N 25°47' W 080°11'0 0.0
2018-Jan-07 11:28N 25°47' W 080°11'0 0.0
2018-Jan-07 10:55N 25°47' W 080°11'0 0.0
2018-Jan-07 10:28N 25°47' W 080°11'0 0.0
2018-Jan-07 09:58N 25°47' W 080°11'0 0.0
2018-Jan-07 09:28N 25°47' W 080°11'0 0.0
2018-Jan-07 08:52N 25°47' W 080°11'0 0.0
2018-Jan-07 08:13N 25°47' W 080°11'0 0.0
2018-Jan-07 07:49N 25°47' W 080°11'0 0.0
2018-Jan-07 07:16N 25°47' W 080°11'0 0.0
2018-Jan-07 06:55N 25°47' W 080°11'0 0.0
2018-Jan-07 06:28N 25°47' W 080°11'0 0.0
2018-Jan-07 05:52N 25°47' W 080°11'0 0.0
2018-Jan-07 05:28N 25°47' W 080°11'0 0.0
2018-Jan-07 04:55N 25°47' W 080°11'0 0.0
2018-Jan-07 04:28N 25°47' W 080°11'0 0.0
2018-Jan-07 03:52N 25°47' W 080°11'0 0.0
2018-Jan-07 03:28N 25°47' W 080°11'0 0.0
2018-Jan-07 02:55N 25°47' W 080°11'0 0.0
2018-Jan-07 02:28N 25°47' W 080°11'0 0.0
2018-Jan-07 01:52N 25°47' W 080°11'0 0.0
2018-Jan-07 01:28N 25°47' W 080°11'0 0.0
2018-Jan-07 00:28N 25°47' W 080°11'0 0.0
2018-Jan-06 23:58N 25°47' W 080°11'0 0.0
2018-Jan-06 23:25N 25°47' W 080°11'0 0.0
2018-Jan-06 22:58N 25°47' W 080°11'0 0.0
2018-Jan-06 22:22N 25°47' W 080°11'0 0.0
2018-Jan-06 21:58N 25°47' W 080°11'0 0.0
2018-Jan-06 21:28N 25°47' W 080°11'0 0.0
2018-Jan-06 20:58N 25°47' W 080°11'0 0.0
2018-Jan-06 20:19N 25°47' W 080°11'0 0.0
2018-Jan-06 19:58N 25°47' W 080°11'0 0.0
2018-Jan-06 19:28N 25°47' W 080°11'0 0.0
2018-Jan-06 18:58N 25°47' W 080°11'0 0.0
2018-Jan-06 18:28N 25°47' W 080°11'0 0.0
2018-Jan-06 17:37N 25°47' W 080°11'0 0.0
2018-Jan-06 17:28N 25°47' W 080°11'0 0.0
2018-Jan-06 16:58N 25°47' W 080°11'0 0.0
2018-Jan-06 16:28N 25°47' W 080°11'0 0.0
2018-Jan-06 15:55N 25°47' W 080°11'0 0.0
2018-Jan-06 15:28N 25°47' W 080°11'0 0.0
2018-Jan-06 14:58N 25°47' W 080°11'0 0.0
2018-Jan-06 14:25N 25°47' W 080°11'0 0.0
2018-Jan-06 13:52N 25°47' W 080°11'0 0.0
2018-Jan-06 13:25N 25°47' W 080°11'0 0.0
2018-Jan-06 12:55N 25°47' W 080°11'0 0.0
2018-Jan-06 12:22N 25°47' W 080°11'0 0.0
2018-Jan-06 11:58N 25°47' W 080°11'0 0.0
2018-Jan-06 11:28N 25°47' W 080°11'0 0.0
2018-Jan-06 10:58N 25°47' W 080°11'0 0.0
2018-Jan-06 10:25N 25°47' W 080°11'0 0.0
2018-Jan-06 09:52N 25°47' W 080°11'0 0.0
2018-Jan-06 09:28N 25°47' W 080°11'0 0.0
2018-Jan-06 08:58N 25°47' W 080°11'0 0.0
2018-Jan-06 08:28N 25°47' W 080°11'0 0.0
2018-Jan-06 07:52N 25°47' W 080°11'0 0.0
2018-Jan-06 07:28N 25°47' W 080°11'0 0.0
2018-Jan-06 06:58N 25°47' W 080°11'0 0.0
2018-Jan-06 06:28N 25°47' W 080°11'0 0.0
2018-Jan-06 05:55N 25°47' W 080°11'0 0.0
2018-Jan-06 05:28N 25°47' W 080°11'0 0.0
2018-Jan-06 04:58N 25°47' W 080°11'0 0.0
2018-Jan-06 04:28N 25°47' W 080°11'0 0.0
2018-Jan-06 03:58N 25°47' W 080°11'0 0.0
2018-Jan-06 03:28N 25°47' W 080°11'0 0.0
2018-Jan-06 02:58N 25°47' W 080°11'0 0.0
2018-Jan-06 02:28N 25°47' W 080°11'0 0.0
2018-Jan-06 01:49N 25°47' W 080°11'0 0.0
2018-Jan-06 01:28N 25°47' W 080°11'0 0.0
2018-Jan-06 00:58N 25°47' W 080°11'0 0.0
2018-Jan-06 00:28N 25°47' W 080°11'715.9
2018-Jan-06 00:00N 25°46' W 080°03'2 0.3
2018-Jan-05 15:39N 25°44' W 080°03'321.1
2018-Jan-05 15:30N 25°45' W 080°06'2 4.5
2018-Jan-05 15:01N 25°46' W 080°08'2 4.5
2018-Jan-05 14:30N 25°47' W 080°11'0 0.0
2018-Jan-05 14:00N 25°47' W 080°11'0 0.0
2018-Jan-05 13:30N 25°47' W 080°11'0 0.0
2018-Jan-05 13:00N 25°47' W 080°11'0 0.0
2018-Jan-05 12:30N 25°47' W 080°11'0 0.0
2018-Jan-05 12:00N 25°47' W 080°11'0 0.0
2018-Jan-05 11:30N 25°47' W 080°11'0 0.0
2018-Jan-05 11:00N 25°47' W 080°11'0 0.0
2018-Jan-05 10:30N 25°47' W 080°11'0 0.0
2018-Jan-05 09:57N 25°47' W 080°11'0 0.0
2018-Jan-05 09:24N 25°47' W 080°11'0 0.0
2018-Jan-05 08:57N 25°47' W 080°11'0 0.0
2018-Jan-05 08:24N 25°47' W 080°11'0 0.0
2018-Jan-05 07:54N 25°47' W 080°11'0 0.0
2018-Jan-05 07:24N 25°47' W 080°11'0 0.0
2018-Jan-05 07:00N 25°47' W 080°11'0 0.0
2018-Jan-05 06:27N 25°47' W 080°11'0 0.0
2018-Jan-05 05:48N 25°47' W 080°11'0 0.0
2018-Jan-05 05:30N 25°47' W 080°11'0 0.0
2018-Jan-05 04:57N 25°47' W 080°11'0 0.0
2018-Jan-05 04:30N 25°47' W 080°11'0 0.0
2018-Jan-05 04:00N 25°47' W 080°11'0 0.0
2018-Jan-05 03:30N 25°47' W 080°11'0 0.0
2018-Jan-05 03:00N 25°47' W 080°11'0 0.0
2018-Jan-05 02:21N 25°47' W 080°11'0 0.0
2018-Jan-05 01:51N 25°47' W 080°11'0 0.0
2018-Jan-05 01:30N 25°47' W 080°11'0 0.0
2018-Jan-05 01:00N 25°47' W 080°11'0 0.0
2018-Jan-05 00:30N 25°47' W 080°11'0 0.0
2018-Jan-05 00:00N 25°47' W 080°11'0 0.0
2018-Jan-04 23:30N 25°47' W 080°11'0 0.0
2018-Jan-04 23:00N 25°47' W 080°11'0 0.0
2018-Jan-04 22:30N 25°47' W 080°11'0 0.0
2018-Jan-04 21:54N 25°47' W 080°11'0 0.0
2018-Jan-04 21:24N 25°47' W 080°11'0 0.0
2018-Jan-04 20:54N 25°47' W 080°11'0 0.0
2018-Jan-04 20:30N 25°47' W 080°11'0 0.0
2018-Jan-04 20:00N 25°47' W 080°11'0 0.0
2018-Jan-04 19:30N 25°47' W 080°11'0 0.0
2018-Jan-04 19:00N 25°47' W 080°11'0 0.0
2018-Jan-04 18:30N 25°47' W 080°11'0 0.0
2018-Jan-04 17:54N 25°47' W 080°11'0 0.0
2018-Jan-04 17:30N 25°47' W 080°11'0 0.0
2018-Jan-04 16:54N 25°47' W 080°11'0 0.0
2018-Jan-04 16:30N 25°47' W 080°11'0 0.0
2018-Jan-04 16:00N 25°47' W 080°11'0 0.0
2018-Jan-04 15:30N 25°47' W 080°11'0 0.0
2018-Jan-04 15:00N 25°47' W 080°11'0 0.0
2018-Jan-04 14:21N 25°47' W 080°11'0 0.0
2018-Jan-04 14:00N 25°47' W 080°11'0 0.0
2018-Jan-04 13:30N 25°47' W 080°11'0 0.0
2018-Jan-04 12:57N 25°47' W 080°11'0 0.0
2018-Jan-04 12:30N 25°47' W 080°11'0 0.0
2018-Jan-04 12:00N 25°47' W 080°11'0 0.0
2018-Jan-04 11:30N 25°47' W 080°11'0 0.0
2018-Jan-04 11:00N 25°47' W 080°11'0 0.0
2018-Jan-04 10:30N 25°47' W 080°11'0 0.0
2018-Jan-04 09:57N 25°47' W 080°11'0 0.0
2018-Jan-04 09:27N 25°47' W 080°11'0 0.0
2018-Jan-04 08:57N 25°47' W 080°11'0 0.0
2018-Jan-04 08:24N 25°47' W 080°11'0 0.0
2018-Jan-04 07:57N 25°47' W 080°11'0 0.0
2018-Jan-04 07:30N 25°47' W 080°11'0 0.0
2018-Jan-04 07:00N 25°47' W 080°11'0 0.0
2018-Jan-04 06:21N 25°47' W 080°11'0 0.0
2018-Jan-04 06:00N 25°47' W 080°11'0 0.0
2018-Jan-04 05:30N 25°47' W 080°11'0 0.0
2018-Jan-04 04:54N 25°47' W 080°11'0 0.0
2018-Jan-04 04:30N 25°47' W 080°11'0 0.0
2018-Jan-04 03:57N 25°47' W 080°11'0 0.0
2018-Jan-04 03:30N 25°47' W 080°11'0 0.0
2018-Jan-04 02:57N 25°47' W 080°11'0 0.0
2018-Jan-04 02:27N 25°47' W 080°11'0 0.0
2018-Jan-04 01:57N 25°47' W 080°11'0 0.0
2018-Jan-04 01:30N 25°47' W 080°11'0 0.0
2018-Jan-04 00:57N 25°47' W 080°11'0 0.0
2018-Jan-04 00:30N 25°47' W 080°11'0 0.0
2018-Jan-04 00:00N 25°47' W 080°11'0 0.0
2018-Jan-03 23:24N 25°47' W 080°11'0 0.0
2018-Jan-03 22:57N 25°47' W 080°11'0 0.0
2018-Jan-03 22:27N 25°47' W 080°11'0 0.0
2018-Jan-03 22:00N 25°47' W 080°11'0 0.0
2018-Jan-03 21:30N 25°47' W 080°11'0 0.0
2018-Jan-03 21:00N 25°47' W 080°11'0 0.0
2018-Jan-03 20:30N 25°47' W 080°11'0 0.0
2018-Jan-03 19:42N 25°47' W 080°11'0 0.0
2018-Jan-03 19:27N 25°47' W 080°11'0 0.0
2018-Jan-03 18:45N 25°47' W 080°11'0 0.0
2018-Jan-03 18:21N 25°47' W 080°11'0 0.0
2018-Jan-03 17:54N 25°47' W 080°11'0 0.0
2018-Jan-03 17:30N 25°47' W 080°11'0 0.0
2018-Jan-03 16:57N 25°47' W 080°11'0 0.0
2018-Jan-03 16:26N 25°47' W 080°11'0 0.0
2018-Jan-03 15:59N 25°47' W 080°11'0 0.0
2018-Jan-03 15:29N 25°47' W 080°11'0 0.0
2018-Jan-03 14:59N 25°47' W 080°11'0 0.0
2018-Jan-03 14:23N 25°47' W 080°11'0 0.0
2018-Jan-03 13:59N 25°47' W 080°11'0 0.0
2018-Jan-03 13:26N 25°47' W 080°11'0 0.0
2018-Jan-03 12:59N 25°47' W 080°11'0 0.0
2018-Jan-03 12:26N 25°47' W 080°11'0 0.0
2018-Jan-03 11:53N 25°47' W 080°11'0 0.0
2018-Jan-03 11:29N 25°47' W 080°11'0 0.0
2018-Jan-03 10:59N 25°47' W 080°11'0 0.0
2018-Jan-03 10:26N 25°47' W 080°11'0 0.0
2018-Jan-03 09:59N 25°47' W 080°11'0 0.0
2018-Jan-03 09:29N 25°47' W 080°11'0 0.0
2018-Jan-03 08:59N 25°47' W 080°11'0 0.0
2018-Jan-03 08:26N 25°47' W 080°11'0 0.0
2018-Jan-03 07:59N 25°47' W 080°11'0 0.0
2018-Jan-03 07:29N 25°47' W 080°11'0 0.0
2018-Jan-03 06:59N 25°47' W 080°11'0 0.0
2018-Jan-03 06:29N 25°47' W 080°11'0 0.0
2018-Jan-03 06:00N 25°47' W 080°11'0 0.0
2018-Jan-03 05:29N 25°47' W 080°11'0 0.0
2018-Jan-03 04:59N 25°47' W 080°11'0 0.0
2018-Jan-03 04:29N 25°47' W 080°11'0 0.0
2018-Jan-03 03:56N 25°47' W 080°11'0 0.0
2018-Jan-03 03:29N 25°47' W 080°11'0 0.0
2018-Jan-03 02:56N 25°47' W 080°11'0 0.0
2018-Jan-03 02:23N 25°47' W 080°11'0 0.0
2018-Jan-03 01:59N 25°47' W 080°11'0 0.0
2018-Jan-03 01:29N 25°47' W 080°11'0 0.0
2018-Jan-03 00:59N 25°47' W 080°11'0 0.0
2018-Jan-03 00:26N 25°47' W 080°11'0 0.0
2018-Jan-02 23:59N 25°47' W 080°11'0 0.0
2018-Jan-02 23:29N 25°47' W 080°11'0 0.0
2018-Jan-02 23:00N 25°47' W 080°11'0 0.0
2018-Jan-02 22:29N 25°47' W 080°11'0 0.0
2018-Jan-02 21:59N 25°47' W 080°11'0 0.0
2018-Jan-02 21:29N 25°47' W 080°11'0 0.0
2018-Jan-02 20:59N 25°47' W 080°11'0 0.0
2018-Jan-02 20:29N 25°47' W 080°11'0 0.0
2018-Jan-02 19:59N 25°47' W 080°11'0 0.0
2018-Jan-02 19:29N 25°47' W 080°11'0 0.0
2018-Jan-02 18:59N 25°47' W 080°11'0 0.0
2018-Jan-02 18:29N 25°47' W 080°11'0 0.0
2018-Jan-02 17:59N 25°47' W 080°11'0 0.0
2018-Jan-02 17:29N 25°47' W 080°11'0 0.0
2018-Jan-02 16:59N 25°47' W 080°11'0 0.0
2018-Jan-02 16:29N 25°47' W 080°11'0 0.0
2018-Jan-02 15:59N 25°47' W 080°11'0 0.0
2018-Jan-02 15:29N 25°47' W 080°11'0 0.0
2018-Jan-02 14:59N 25°47' W 080°11'0 0.0
2018-Jan-02 14:29N 25°47' W 080°11'0 0.0
2018-Jan-02 13:59N 25°47' W 080°11'  
Track history (hours):
 
Tides and Currents Weather Stations Pressure Air Temp Water Temp Dewpoint Dewpoint Depression Visibility Wind Speed Wind Dir Waves Ship Positions

L'a Kai

Last reported at 2018-Jan-12 13:46 UTC. Time now 2018-Feb-18 08:41 UTC.
Position N 25°41' W 079°19'.
Warning: this ship's position is 36 days out of date.

Length 11 m.

MMSI: 339344000.

Date/timePositionNaut miles runAvg speedWind from/ knotsBaromVisibWave heightAir tempDewpointWater temp
2018-Jan-12 13:46N 25°41' W 079°19'3 9.2
2018-Jan-12 13:30N 25°44' W 079°19'4 7.2
2018-Jan-12 12:58N 25°48' W 079°18'510.5
2018-Jan-12 12:30N 25°43' W 079°19'3 5.6
2018-Jan-12 11:58N 25°45' W 079°17'0 0.0
2018-Jan-12 11:28N 25°45' W 079°17'0 0.0
2018-Jan-12 10:58N 25°45' W 079°17'0 0.0
2018-Jan-12 10:28N 25°45' W 079°17'0 0.0
2018-Jan-12 09:58N 25°45' W 079°17'0 0.0
2018-Jan-12 09:28N 25°45' W 079°17'0 0.0
2018-Jan-12 08:58N 25°45' W 079°17'0 0.0
2018-Jan-12 08:28N 25°45' W 079°17'0 0.0
2018-Jan-12 07:58N 25°45' W 079°17'0 0.0
2018-Jan-12 07:28N 25°45' W 079°17'0 0.0
2018-Jan-12 06:58N 25°45' W 079°17'0 0.0
2018-Jan-12 06:28N 25°45' W 079°17'0 0.0
2018-Jan-12 05:55N 25°45' W 079°17'0 0.0
2018-Jan-12 05:28N 25°45' W 079°17'0 0.0
2018-Jan-12 04:58N 25°45' W 079°17'0 0.0
2018-Jan-12 04:28N 25°45' W 079°17'0 0.0
2018-Jan-12 03:58N 25°45' W 079°17'0 0.0
2018-Jan-12 03:28N 25°45' W 079°17'0 0.0
2018-Jan-12 02:58N 25°45' W 079°17'0 0.0
2018-Jan-12 02:28N 25°45' W 079°17'0 0.0
2018-Jan-12 01:58N 25°45' W 079°17'0 0.0
2018-Jan-12 01:28N 25°45' W 079°17'0 0.0
2018-Jan-12 00:58N 25°45' W 079°17'0 0.0
2018-Jan-12 00:28N 25°45' W 079°17'0 0.0
2018-Jan-11 23:58N 25°45' W 079°17'0 0.0
2018-Jan-11 23:28N 25°45' W 079°17'0 0.0
2018-Jan-11 22:58N 25°45' W 079°17'0 0.0
2018-Jan-11 22:25N 25°45' W 079°17'0 0.0
2018-Jan-11 21:58N 25°45' W 079°17'0 0.0
2018-Jan-11 21:28N 25°45' W 079°17'0 0.0
2018-Jan-11 20:58N 25°45' W 079°17'0 0.0
2018-Jan-11 20:28N 25°45' W 079°17'0 0.0
2018-Jan-11 19:58N 25°45' W 079°17'0 0.0
2018-Jan-11 19:28N 25°45' W 079°17'0 0.0
2018-Jan-11 18:58N 25°45' W 079°17'0 0.0
2018-Jan-11 18:28N 25°45' W 079°17'0 0.0
2018-Jan-11 17:58N 25°45' W 079°17'0 0.0
2018-Jan-11 17:28N 25°45' W 079°17'0 0.0
2018-Jan-11 16:58N 25°45' W 079°17'0 0.0
2018-Jan-11 16:28N 25°45' W 079°17'0 0.0
2018-Jan-11 15:58N 25°45' W 079°17'1 2.7
2018-Jan-11 15:30N 25°44' W 079°17'2 3.2
2018-Jan-11 15:01N 25°45' W 079°19'0 0.5
2018-Jan-11 14:30N 25°44' W 079°19'0 0.9
2018-Jan-11 14:00N 25°45' W 079°19'0 0.7
2018-Jan-11 13:30N 25°45' W 079°19'3 5.4
2018-Jan-11 13:00N 25°48' W 079°18'3 4.8
2018-Jan-11 12:28N 25°45' W 079°19'2 3.8
2018-Jan-11 12:00N 25°45' W 079°17'0 0.6
2018-Jan-11 11:28N 25°45' W 079°17'0 0.0
2018-Jan-11 10:58N 25°45' W 079°17'0 0.0
2018-Jan-11 10:28N 25°45' W 079°17'0 0.0
2018-Jan-11 09:58N 25°45' W 079°17'0 0.0
2018-Jan-11 09:28N 25°45' W 079°17'0 0.0
2018-Jan-11 08:58N 25°45' W 079°17'0 0.0
2018-Jan-11 08:28N 25°45' W 079°17'0 0.0
2018-Jan-11 07:58N 25°45' W 079°17'0 0.0
2018-Jan-11 07:28N 25°45' W 079°17'0 0.0
2018-Jan-11 06:58N 25°45' W 079°17'0 0.0
2018-Jan-11 06:28N 25°45' W 079°17'0 0.0
2018-Jan-11 05:58N 25°45' W 079°17'0 0.0
2018-Jan-11 05:28N 25°45' W 079°17'0 0.0
2018-Jan-11 04:58N 25°45' W 079°17'0 0.0
2018-Jan-11 04:28N 25°45' W 079°17'0 0.0
2018-Jan-11 03:58N 25°45' W 079°17'0 0.0
2018-Jan-11 03:28N 25°45' W 079°17'0 0.0
2018-Jan-11 02:58N 25°45' W 079°17'0 0.0
2018-Jan-11 02:28N 25°45' W 079°17'0 0.0
2018-Jan-11 01:58N 25°45' W 079°17'0 0.0
2018-Jan-11 01:28N 25°45' W 079°17'0 0.0
2018-Jan-11 00:58N 25°45' W 079°17'0 0.0
2018-Jan-11 00:28N 25°45' W 079°17'0 0.0
2018-Jan-10 23:58N 25°45' W 079°17'0 0.0
2018-Jan-10 23:28N 25°45' W 079°17'0 0.0
2018-Jan-10 22:58N 25°45' W 079°17'0 0.0
2018-Jan-10 22:28N 25°45' W 079°17'0 0.0
2018-Jan-10 21:58N 25°45' W 079°17'0 0.0
2018-Jan-10 21:28N 25°45' W 079°17'0 0.0
2018-Jan-10 20:58N 25°45' W 079°17'0 0.0
2018-Jan-10 20:29N 25°45' W 079°17'0 0.0
2018-Jan-10 19:58N 25°45' W 079°17'0 0.0
2018-Jan-10 19:28N 25°45' W 079°17'0 0.0
2018-Jan-10 18:58N 25°45' W 079°17'0 0.0
2018-Jan-10 18:28N 25°45' W 079°17'0 0.0
2018-Jan-10 17:58N 25°45' W 079°17'0 0.0
2018-Jan-10 17:28N 25°45' W 079°17'0 0.0
2018-Jan-10 16:58N 25°45' W 079°17'0 0.0
2018-Jan-10 16:28N 25°45' W 079°17'0 0.0
2018-Jan-10 15:58N 25°45' W 079°17'0 0.0
2018-Jan-10 15:28N 25°45' W 079°17'0 0.0
2018-Jan-10 14:58N 25°45' W 079°17'0 0.0
2018-Jan-10 14:28N 25°45' W 079°17'38 1.7
2018-Jan-09 15:49N 25°46' W 079°59'3 9.3
2018-Jan-09 15:30N 25°46' W 080°02'5 9.6
2018-Jan-09 15:00N 25°46' W 080°07'1 2.3
2018-Jan-09 14:30N 25°46' W 080°08'2 4.2
2018-Jan-09 13:58N 25°47' W 080°11'0 0.0
2018-Jan-09 13:22N 25°47' W 080°11'0 0.0
2018-Jan-09 12:55N 25°47' W 080°11'0 0.0
2018-Jan-09 12:28N 25°47' W 080°11'0 0.0
2018-Jan-09 11:55N 25°47' W 080°11'0 0.0
2018-Jan-09 11:28N 25°47' W 080°11'0 0.0
2018-Jan-09 10:55N 25°47' W 080°11'0 0.0
2018-Jan-09 10:28N 25°47' W 080°11'0 0.0
2018-Jan-09 09:58N 25°47' W 080°11'0 0.0
2018-Jan-09 09:25N 25°47' W 080°11'0 0.0
2018-Jan-09 08:58N 25°47' W 080°11'0 0.0
2018-Jan-09 08:28N 25°47' W 080°11'0 0.0
2018-Jan-09 07:58N 25°47' W 080°11'0 0.0
2018-Jan-09 07:28N 25°47' W 080°11'0 0.0
2018-Jan-09 06:58N 25°47' W 080°11'0 0.0
2018-Jan-09 06:28N 25°47' W 080°11'0 0.0
2018-Jan-09 05:58N 25°47' W 080°11'0 0.0
2018-Jan-09 05:28N 25°47' W 080°11'0 0.0
2018-Jan-09 04:55N 25°47' W 080°11'0 0.0
2018-Jan-09 04:25N 25°47' W 080°11'0 0.0
2018-Jan-09 03:52N 25°47' W 080°11'0 0.0
2018-Jan-09 03:28N 25°47' W 080°11'0 0.0
2018-Jan-09 02:58N 25°47' W 080°11'0 0.0
2018-Jan-09 02:28N 25°47' W 080°11'0 0.0
2018-Jan-09 01:58N 25°47' W 080°11'0 0.0
2018-Jan-09 01:28N 25°47' W 080°11'0 0.0
2018-Jan-09 00:58N 25°47' W 080°11'0 0.0
2018-Jan-09 00:28N 25°47' W 080°11'0 0.0
2018-Jan-08 23:58N 25°47' W 080°11'0 0.0
2018-Jan-08 23:28N 25°47' W 080°11'0 0.0
2018-Jan-08 22:55N 25°47' W 080°11'0 0.0
2018-Jan-08 22:28N 25°47' W 080°11'0 0.0
2018-Jan-08 21:58N 25°47' W 080°11'0 0.0
2018-Jan-08 21:28N 25°47' W 080°11'0 0.0
2018-Jan-08 20:58N 25°47' W 080°11'0 0.0
2018-Jan-08 20:25N 25°47' W 080°11'0 0.0
2018-Jan-08 19:58N 25°47' W 080°11'0 0.0
2018-Jan-08 19:28N 25°47' W 080°11'0 0.0
2018-Jan-08 18:58N 25°47' W 080°11'0 0.0
2018-Jan-08 18:28N 25°47' W 080°11'0 0.0
2018-Jan-08 17:58N 25°47' W 080°11'0 0.0
2018-Jan-08 17:28N 25°47' W 080°11'0 0.0
2018-Jan-08 16:55N 25°47' W 080°11'0 0.0
2018-Jan-08 16:28N 25°47' W 080°11'0 0.0
2018-Jan-08 15:58N 25°47' W 080°11'0 0.0
2018-Jan-08 15:28N 25°47' W 080°11'0 0.0
2018-Jan-08 14:58N 25°47' W 080°11'0 0.0
2018-Jan-08 14:28N 25°47' W 080°11'0 0.0
2018-Jan-08 13:58N 25°47' W 080°11'0 0.0
2018-Jan-08 13:28N 25°47' W 080°11'0 0.0
2018-Jan-08 12:58N 25°47' W 080°11'0 0.0
2018-Jan-08 12:28N 25°47' W 080°11'0 0.0
2018-Jan-08 11:58N 25°47' W 080°11'0 0.0
2018-Jan-08 11:28N 25°47' W 080°11'0 0.0
2018-Jan-08 10:58N 25°47' W 080°11'0 0.0
2018-Jan-08 10:28N 25°47' W 080°11'0 0.0
2018-Jan-08 09:58N 25°47' W 080°11'0 0.0
2018-Jan-08 09:28N 25°47' W 080°11'0 0.0
2018-Jan-08 08:49N 25°47' W 080°11'0 0.0
2018-Jan-08 08:28N 25°47' W 080°11'0 0.0
2018-Jan-08 07:58N 25°47' W 080°11'0 0.0
2018-Jan-08 07:28N 25°47' W 080°11'0 0.0
2018-Jan-08 06:46N 25°47' W 080°11'0 0.0
2018-Jan-08 06:28N 25°47' W 080°11'0 0.0
2018-Jan-08 05:52N 25°47' W 080°11'0 0.0
2018-Jan-08 05:28N 25°47' W 080°11'0 0.0
2018-Jan-08 04:58N 25°47' W 080°11'0 0.0
2018-Jan-08 04:25N 25°47' W 080°11'0 0.0
2018-Jan-08 03:55N 25°47' W 080°11'0 0.0
2018-Jan-08 03:07N 25°47' W 080°11'0 0.0
2018-Jan-08 02:58N 25°47' W 080°11'0 0.0
2018-Jan-08 02:28N 25°47' W 080°11'0 0.0
2018-Jan-08 01:58N 25°47' W 080°11'0 0.0
2018-Jan-08 01:28N 25°47' W 080°11'0 0.0
2018-Jan-08 00:55N 25°47' W 080°11'0 0.0
2018-Jan-08 00:28N 25°47' W 080°11'0 0.0
2018-Jan-07 23:58N 25°47' W 080°11'0 0.0
2018-Jan-07 23:28N 25°47' W 080°11'0 0.0
2018-Jan-07 22:58N 25°47' W 080°11'0 0.0
2018-Jan-07 22:28N 25°47' W 080°11'0 0.0
2018-Jan-07 21:58N 25°47' W 080°11'0 0.0
2018-Jan-07 21:16N 25°47' W 080°11'0 0.0
2018-Jan-07 20:58N 25°47' W 080°11'0 0.0
2018-Jan-07 20:28N 25°47' W 080°11'0 0.0
2018-Jan-07 19:58N 25°47' W 080°11'0 0.0
2018-Jan-07 19:19N 25°47' W 080°11'0 0.0
2018-Jan-07 18:58N 25°47' W 080°11'0 0.0
2018-Jan-07 18:25N 25°47' W 080°11'0 0.0
2018-Jan-07 17:49N 25°47' W 080°11'0 0.0
2018-Jan-07 17:28N 25°47' W 080°11'0 0.0
2018-Jan-07 16:58N 25°47' W 080°11'0 0.0
2018-Jan-07 16:25N 25°47' W 080°11'0 0.0
2018-Jan-07 15:58N 25°47' W 080°11'0 0.0
2018-Jan-07 15:28N 25°47' W 080°11'0 0.0
2018-Jan-07 14:58N 25°47' W 080°11'0 0.0
2018-Jan-07 14:25N 25°47' W 080°11'0 0.0
2018-Jan-07 13:58N 25°47' W 080°11'0 0.0
2018-Jan-07 13:28N 25°47' W 080°11'0 0.0
2018-Jan-07 12:58N 25°47' W 080°11'0 0.0
2018-Jan-07 12:22N 25°47' W 080°11'0 0.0
2018-Jan-07 11:55N 25°47' W 080°11'0 0.0
2018-Jan-07 11:28N 25°47' W 080°11'0 0.0
2018-Jan-07 10:55N 25°47' W 080°11'0 0.0
2018-Jan-07 10:28N 25°47' W 080°11'0 0.0
2018-Jan-07 09:58N 25°47' W 080°11'0 0.0
2018-Jan-07 09:28N 25°47' W 080°11'0 0.0
2018-Jan-07 08:52N 25°47' W 080°11'0 0.0
2018-Jan-07 08:13N 25°47' W 080°11'0 0.0
2018-Jan-07 07:49N 25°47' W 080°11'0 0.0
2018-Jan-07 07:16N 25°47' W 080°11'0 0.0
2018-Jan-07 06:55N 25°47' W 080°11'0 0.0
2018-Jan-07 06:28N 25°47' W 080°11'0 0.0
2018-Jan-07 05:52N 25°47' W 080°11'0 0.0
2018-Jan-07 05:28N 25°47' W 080°11'0 0.0
2018-Jan-07 04:55N 25°47' W 080°11'0 0.0
2018-Jan-07 04:28N 25°47' W 080°11'0 0.0
2018-Jan-07 03:52N 25°47' W 080°11'0 0.0
2018-Jan-07 03:28N 25°47' W 080°11'0 0.0
2018-Jan-07 02:55N 25°47' W 080°11'0 0.0
2018-Jan-07 02:28N 25°47' W 080°11'0 0.0
2018-Jan-07 01:52N 25°47' W 080°11'0 0.0
2018-Jan-07 01:28N 25°47' W 080°11'0 0.0
2018-Jan-07 00:28N 25°47' W 080°11'0 0.0
2018-Jan-06 23:58N 25°47' W 080°11'0 0.0
2018-Jan-06 23:25N 25°47' W 080°11'0 0.0
2018-Jan-06 22:58N 25°47' W 080°11'0 0.0
2018-Jan-06 22:22N 25°47' W 080°11'0 0.0
2018-Jan-06 21:58N 25°47' W 080°11'0 0.0
2018-Jan-06 21:28N 25°47' W 080°11'0 0.0
2018-Jan-06 20:58N 25°47' W 080°11'0 0.0
2018-Jan-06 20:19N 25°47' W 080°11'0 0.0
2018-Jan-06 19:58N 25°47' W 080°11'0 0.0
2018-Jan-06 19:28N 25°47' W 080°11'0 0.0
2018-Jan-06 18:58N 25°47' W 080°11'0 0.0
2018-Jan-06 18:28N 25°47' W 080°11'0 0.0
2018-Jan-06 17:37N 25°47' W 080°11'0 0.0
2018-Jan-06 17:28N 25°47' W 080°11'0 0.0
2018-Jan-06 16:58N 25°47' W 080°11'0 0.0
2018-Jan-06 16:28N 25°47' W 080°11'0 0.0
2018-Jan-06 15:55N 25°47' W 080°11'0 0.0
2018-Jan-06 15:28N 25°47' W 080°11'0 0.0
2018-Jan-06 14:58N 25°47' W 080°11'0 0.0
2018-Jan-06 14:25N 25°47' W 080°11'0 0.0
2018-Jan-06 13:52N 25°47' W 080°11'0 0.0
2018-Jan-06 13:25N 25°47' W 080°11'0 0.0
2018-Jan-06 12:55N 25°47' W 080°11'0 0.0
2018-Jan-06 12:22N 25°47' W 080°11'0 0.0
2018-Jan-06 11:58N 25°47' W 080°11'0 0.0
2018-Jan-06 11:28N 25°47' W 080°11'0 0.0
2018-Jan-06 10:58N 25°47' W 080°11'0 0.0
2018-Jan-06 10:25N 25°47' W 080°11'0 0.0
2018-Jan-06 09:52N 25°47' W 080°11'0 0.0
2018-Jan-06 09:28N 25°47' W 080°11'0 0.0
2018-Jan-06 08:58N 25°47' W 080°11'0 0.0
2018-Jan-06 08:28N 25°47' W 080°11'0 0.0
2018-Jan-06 07:52N 25°47' W 080°11'0 0.0
2018-Jan-06 07:28N 25°47' W 080°11'0 0.0
2018-Jan-06 06:58N 25°47' W 080°11'0 0.0
2018-Jan-06 06:28N 25°47' W 080°11'0 0.0
2018-Jan-06 05:55N 25°47' W 080°11'0 0.0
2018-Jan-06 05:28N 25°47' W 080°11'0 0.0
2018-Jan-06 04:58N 25°47' W 080°11'0 0.0
2018-Jan-06 04:28N 25°47' W 080°11'0 0.0
2018-Jan-06 03:58N 25°47' W 080°11'0 0.0
2018-Jan-06 03:28N 25°47' W 080°11'0 0.0
2018-Jan-06 02:58N 25°47' W 080°11'0 0.0
2018-Jan-06 02:28N 25°47' W 080°11'0 0.0
2018-Jan-06 01:49N 25°47' W 080°11'0 0.0
2018-Jan-06 01:28N 25°47' W 080°11'0 0.0
2018-Jan-06 00:58N 25°47' W 080°11'0 0.0
2018-Jan-06 00:28N 25°47' W 080°11'715.9
2018-Jan-06 00:00N 25°46' W 080°03'2 0.3
2018-Jan-05 15:39N 25°44' W 080°03'321.1
2018-Jan-05 15:30N 25°45' W 080°06'2 4.5
2018-Jan-05 15:01N 25°46' W 080°08'2 4.5
2018-Jan-05 14:30N 25°47' W 080°11'0 0.0
2018-Jan-05 14:00N 25°47' W 080°11'0 0.0
2018-Jan-05 13:30N 25°47' W 080°11'0 0.0
2018-Jan-05 13:00N 25°47' W 080°11'0 0.0
2018-Jan-05 12:30N 25°47' W 080°11'0 0.0
2018-Jan-05 12:00N 25°47' W 080°11'0 0.0
2018-Jan-05 11:30N 25°47' W 080°11'0 0.0
2018-Jan-05 11:00N 25°47' W 080°11'0 0.0
2018-Jan-05 10:30N 25°47' W 080°11'0 0.0
2018-Jan-05 09:57N 25°47' W 080°11'0 0.0
2018-Jan-05 09:24N 25°47' W 080°11'0 0.0
2018-Jan-05 08:57N 25°47' W 080°11'0 0.0
2018-Jan-05 08:24N 25°47' W 080°11'0 0.0
2018-Jan-05 07:54N 25°47' W 080°11'0 0.0
2018-Jan-05 07:24N 25°47' W 080°11'0 0.0
2018-Jan-05 07:00N 25°47' W 080°11'0 0.0
2018-Jan-05 06:27N 25°47' W 080°11'0 0.0
2018-Jan-05 05:48N 25°47' W 080°11'0 0.0
2018-Jan-05 05:30N 25°47' W 080°11'0 0.0
2018-Jan-05 04:57N 25°47' W 080°11'0 0.0
2018-Jan-05 04:30N 25°47' W 080°11'0 0.0
2018-Jan-05 04:00N 25°47' W 080°11'0 0.0
2018-Jan-05 03:30N 25°47' W 080°11'0 0.0
2018-Jan-05 03:00N 25°47' W 080°11'0 0.0
2018-Jan-05 02:21N 25°47' W 080°11'0 0.0
2018-Jan-05 01:51N 25°47' W 080°11'0 0.0
2018-Jan-05 01:30N 25°47' W 080°11'0 0.0
2018-Jan-05 01:00N 25°47' W 080°11'0 0.0
2018-Jan-05 00:30N 25°47' W 080°11'0 0.0
2018-Jan-05 00:00N 25°47' W 080°11'0 0.0
2018-Jan-04 23:30N 25°47' W 080°11'0 0.0
2018-Jan-04 23:00N 25°47' W 080°11'0 0.0
2018-Jan-04 22:30N 25°47' W 080°11'0 0.0
2018-Jan-04 21:54N 25°47' W 080°11'0 0.0
2018-Jan-04 21:24N 25°47' W 080°11'0 0.0
2018-Jan-04 20:54N 25°47' W 080°11'0 0.0
2018-Jan-04 20:30N 25°47' W 080°11'0 0.0
2018-Jan-04 20:00N 25°47' W 080°11'0 0.0
2018-Jan-04 19:30N 25°47' W 080°11'0 0.0
2018-Jan-04 19:00N 25°47' W 080°11'0 0.0
2018-Jan-04 18:30N 25°47' W 080°11'0 0.0
2018-Jan-04 17:54N 25°47' W 080°11'0 0.0
2018-Jan-04 17:30N 25°47' W 080°11'0 0.0
2018-Jan-04 16:54N 25°47' W 080°11'0 0.0
2018-Jan-04 16:30N 25°47' W 080°11'0 0.0
2018-Jan-04 16:00N 25°47' W 080°11'0 0.0
2018-Jan-04 15:30N 25°47' W 080°11'0 0.0
2018-Jan-04 15:00N 25°47' W 080°11'0 0.0
2018-Jan-04 14:21N 25°47' W 080°11'0 0.0
2018-Jan-04 14:00N 25°47' W 080°11'0 0.0
2018-Jan-04 13:30N 25°47' W 080°11'0 0.0
2018-Jan-04 12:57N 25°47' W 080°11'0 0.0
2018-Jan-04 12:30N 25°47' W 080°11'0 0.0
2018-Jan-04 12:00N 25°47' W 080°11'0 0.0
2018-Jan-04 11:30N 25°47' W 080°11'0 0.0
2018-Jan-04 11:00N 25°47' W 080°11'0 0.0
2018-Jan-04 10:30N 25°47' W 080°11'0 0.0
2018-Jan-04 09:57N 25°47' W 080°11'0 0.0
2018-Jan-04 09:27N 25°47' W 080°11'0 0.0
2018-Jan-04 08:57N 25°47' W 080°11'0 0.0
2018-Jan-04 08:24N 25°47' W 080°11'0 0.0
2018-Jan-04 07:57N 25°47' W 080°11'0 0.0
2018-Jan-04 07:30N 25°47' W 080°11'0 0.0
2018-Jan-04 07:00N 25°47' W 080°11'0 0.0
2018-Jan-04 06:21N 25°47' W 080°11'0 0.0
2018-Jan-04 06:00N 25°47' W 080°11'0 0.0
2018-Jan-04 05:30N 25°47' W 080°11'0 0.0
2018-Jan-04 04:54N 25°47' W 080°11'0 0.0
2018-Jan-04 04:30N 25°47' W 080°11'0 0.0
2018-Jan-04 03:57N 25°47' W 080°11'0 0.0
2018-Jan-04 03:30N 25°47' W 080°11'0 0.0
2018-Jan-04 02:57N 25°47' W 080°11'0 0.0
2018-Jan-04 02:27N 25°47' W 080°11'0 0.0
2018-Jan-04 01:57N 25°47' W 080°11'0 0.0
2018-Jan-04 01:30N 25°47' W 080°11'0 0.0
2018-Jan-04 00:57N 25°47' W 080°11'0 0.0
2018-Jan-04 00:30N 25°47' W 080°11'0 0.0
2018-Jan-04 00:00N 25°47' W 080°11'0 0.0
2018-Jan-03 23:24N 25°47' W 080°11'0 0.0
2018-Jan-03 22:57N 25°47' W 080°11'0 0.0
2018-Jan-03 22:27N 25°47' W 080°11'0 0.0
2018-Jan-03 22:00N 25°47' W 080°11'0 0.0
2018-Jan-03 21:30N 25°47' W 080°11'0 0.0
2018-Jan-03 21:00N 25°47' W 080°11'0 0.0
2018-Jan-03 20:30N 25°47' W 080°11'0 0.0
2018-Jan-03 19:42N 25°47' W 080°11'0 0.0
2018-Jan-03 19:27N 25°47' W 080°11'0 0.0
2018-Jan-03 18:45N 25°47' W 080°11'0 0.0
2018-Jan-03 18:21N 25°47' W 080°11'0 0.0
2018-Jan-03 17:54N 25°47' W 080°11'0 0.0
2018-Jan-03 17:30N 25°47' W 080°11'0 0.0
2018-Jan-03 16:57N 25°47' W 080°11'0 0.0
2018-Jan-03 16:26N 25°47' W 080°11'0 0.0
2018-Jan-03 15:59N 25°47' W 080°11'0 0.0
2018-Jan-03 15:29N 25°47' W 080°11'0 0.0
2018-Jan-03 14:59N 25°47' W 080°11'0 0.0
2018-Jan-03 14:23N 25°47' W 080°11'0 0.0
2018-Jan-03 13:59N 25°47' W 080°11'0 0.0
2018-Jan-03 13:26N 25°47' W 080°11'0 0.0
2018-Jan-03 12:59N 25°47' W 080°11'0 0.0
2018-Jan-03 12:26N 25°47' W 080°11'0 0.0
2018-Jan-03 11:53N 25°47' W 080°11'0 0.0
2018-Jan-03 11:29N 25°47' W 080°11'0 0.0
2018-Jan-03 10:59N 25°47' W 080°11'0 0.0
2018-Jan-03 10:26N 25°47' W 080°11'0 0.0
2018-Jan-03 09:59N 25°47' W 080°11'0 0.0
2018-Jan-03 09:29N 25°47' W 080°11'0 0.0
2018-Jan-03 08:59N 25°47' W 080°11'0 0.0
2018-Jan-03 08:26N 25°47' W 080°11'0 0.0
2018-Jan-03 07:59N 25°47' W 080°11'0 0.0
2018-Jan-03 07:29N 25°47' W 080°11'0 0.0
2018-Jan-03 06:59N 25°47' W 080°11'0 0.0
2018-Jan-03 06:29N 25°47' W 080°11'0 0.0
2018-Jan-03 06:00N 25°47' W 080°11'0 0.0
2018-Jan-03 05:29N 25°47' W 080°11'0 0.0
2018-Jan-03 04:59N 25°47' W 080°11'0 0.0
2018-Jan-03 04:29N 25°47' W 080°11'0 0.0
2018-Jan-03 03:56N 25°47' W 080°11'0 0.0
2018-Jan-03 03:29N 25°47' W 080°11'0 0.0
2018-Jan-03 02:56N 25°47' W 080°11'0 0.0
2018-Jan-03 02:23N 25°47' W 080°11'0 0.0
2018-Jan-03 01:59N 25°47' W 080°11'0 0.0
2018-Jan-03 01:29N 25°47' W 080°11'0 0.0
2018-Jan-03 00:59N 25°47' W 080°11'0 0.0
2018-Jan-03 00:26N 25°47' W 080°11'0 0.0
2018-Jan-02 23:59N 25°47' W 080°11'0 0.0
2018-Jan-02 23:29N 25°47' W 080°11'0 0.0
2018-Jan-02 23:00N 25°47' W 080°11'0 0.0
2018-Jan-02 22:29N 25°47' W 080°11'0 0.0
2018-Jan-02 21:59N 25°47' W 080°11'0 0.0
2018-Jan-02 21:29N 25°47' W 080°11'0 0.0
2018-Jan-02 20:59N 25°47' W 080°11'0 0.0
2018-Jan-02 20:29N 25°47' W 080°11'0 0.0
2018-Jan-02 19:59N 25°47' W 080°11'0 0.0
2018-Jan-02 19:29N 25°47' W 080°11'0 0.0
2018-Jan-02 18:59N 25°47' W 080°11'0 0.0
2018-Jan-02 18:29N 25°47' W 080°11'0 0.0
2018-Jan-02 17:59N 25°47' W 080°11'0 0.0
2018-Jan-02 17:29N 25°47' W 080°11'0 0.0
2018-Jan-02 16:59N 25°47' W 080°11'0 0.0
2018-Jan-02 16:29N 25°47' W 080°11'0 0.0
2018-Jan-02 15:59N 25°47' W 080°11'0 0.0
2018-Jan-02 15:29N 25°47' W 080°11'0 0.0
2018-Jan-02 14:59N 25°47' W 080°11'0 0.0
2018-Jan-02 14:29N 25°47' W 080°11'0 0.0
2018-Jan-02 13:59N 25°47' W 080°11'  

Dump ship's entire track history